createdAt,value
2018-12-19T00:00:27.582Z,0.30
2018-12-19T00:02:55.053Z,0.40
2018-12-19T00:05:22.509Z,0.40
2018-12-19T00:07:49.993Z,0.50
2018-12-19T00:10:17.448Z,0.50
2018-12-19T00:12:44.905Z,0.50
2018-12-19T00:15:12.381Z,0.60
2018-12-19T00:17:39.848Z,0.60
2018-12-19T00:20:07.337Z,0.60
2018-12-19T00:22:34.796Z,0.60
2018-12-19T00:25:02.258Z,0.70
2018-12-19T00:27:29.730Z,0.70
2018-12-19T00:29:57.175Z,0.70
2018-12-19T00:32:24.656Z,0.70
2018-12-19T00:34:52.127Z,0.70
2018-12-19T00:37:19.628Z,0.80
2018-12-19T00:39:47.069Z,0.90
2018-12-19T00:42:14.576Z,0.90
2018-12-19T00:44:42.023Z,0.90
2018-12-19T00:47:09.728Z,1.00
2018-12-19T00:49:37.209Z,1.00
2018-12-19T00:52:04.662Z,1.00
2018-12-19T00:54:32.092Z,1.00
2018-12-19T00:56:59.538Z,1.00
2018-12-19T00:59:26.996Z,0.90
2018-12-19T01:01:54.459Z,1.00
2018-12-19T01:04:21.948Z,1.00
2018-12-19T01:06:49.440Z,1.10
2018-12-19T01:09:16.882Z,1.20
2018-12-19T01:11:44.331Z,1.20
2018-12-19T01:14:11.837Z,1.20
2018-12-19T01:16:39.304Z,1.30
2018-12-19T01:19:06.752Z,1.40
2018-12-19T01:21:34.203Z,1.50
2018-12-19T01:24:01.649Z,1.40
2018-12-19T01:26:29.136Z,1.30
2018-12-19T01:28:56.601Z,1.20
2018-12-19T01:31:24.071Z,1.20
2018-12-19T01:33:51.548Z,1.10
2018-12-19T01:36:18.984Z,1.10
2018-12-19T01:38:46.459Z,1.00
2018-12-19T01:41:13.914Z,1.00
2018-12-19T01:43:41.362Z,1.10
2018-12-19T01:46:08.807Z,1.20
2018-12-19T01:48:36.289Z,1.20
2018-12-19T01:51:03.760Z,1.20
2018-12-19T01:53:31.215Z,1.30
2018-12-19T01:55:58.877Z,1.30
2018-12-19T01:58:26.326Z,1.40
2018-12-19T02:00:53.805Z,1.40
2018-12-19T02:03:21.280Z,1.40
2018-12-19T02:05:48.729Z,1.30
2018-12-19T02:08:16.176Z,1.30
2018-12-19T02:10:43.678Z,1.20
2018-12-19T02:13:11.159Z,1.20
2018-12-19T02:15:38.646Z,1.20
2018-12-19T02:18:06.079Z,1.20
2018-12-19T02:20:33.564Z,1.20
2018-12-19T02:23:01.025Z,1.20
2018-12-19T02:25:28.467Z,1.20
2018-12-19T02:27:55.955Z,1.20
2018-12-19T02:30:23.405Z,1.20
2018-12-19T02:32:50.867Z,1.20
2018-12-19T02:35:18.368Z,1.20
2018-12-19T02:37:45.843Z,1.20
2018-12-19T02:40:13.309Z,1.20
2018-12-19T02:42:40.777Z,1.10
2018-12-19T02:45:08.263Z,1.10
2018-12-19T02:47:35.736Z,1.10
2018-12-19T02:50:04.226Z,1.00
2018-12-19T02:52:31.692Z,1.00
2018-12-19T02:54:59.173Z,1.10
2018-12-19T02:57:26.668Z,1.10
2018-12-19T02:59:54.143Z,1.20
2018-12-19T03:02:21.620Z,1.20
2018-12-19T03:04:49.095Z,1.10
2018-12-19T03:07:16.646Z,1.10
2018-12-19T03:09:44.094Z,1.10
2018-12-19T03:12:11.572Z,1.10
2018-12-19T03:14:39.116Z,1.10
2018-12-19T03:17:06.594Z,1.10
2018-12-19T03:19:34.048Z,1.10
2018-12-19T03:22:01.505Z,1.10
2018-12-19T03:24:28.960Z,1.10
2018-12-19T03:26:56.419Z,1.20
2018-12-19T03:29:23.948Z,1.10
2018-12-19T03:31:51.413Z,1.10
2018-12-19T03:34:18.860Z,1.10
2018-12-19T03:36:46.388Z,1.10
2018-12-19T03:39:13.847Z,1.10
2018-12-19T03:41:41.371Z,1.20
2018-12-19T03:44:08.898Z,1.20
2018-12-19T03:46:36.380Z,1.20
2018-12-19T03:49:03.863Z,1.30
2018-12-19T03:51:31.348Z,1.40
2018-12-19T03:53:58.789Z,1.40
2018-12-19T03:56:26.259Z,1.40
2018-12-19T03:58:53.753Z,1.40
2018-12-19T04:01:21.259Z,1.40
2018-12-19T04:03:48.751Z,1.30
2018-12-19T04:06:16.219Z,1.40
2018-12-19T04:08:43.668Z,1.50
2018-12-19T04:11:11.136Z,1.60
2018-12-19T04:13:38.583Z,1.60
2018-12-19T04:16:06.092Z,1.70
2018-12-19T04:18:33.529Z,1.80
2018-12-19T04:21:01.003Z,1.90
2018-12-19T04:23:28.445Z,1.90
2018-12-19T04:25:55.928Z,1.90
2018-12-19T04:28:23.368Z,1.90
2018-12-19T04:30:51.007Z,1.80
2018-12-19T04:33:18.733Z,1.70
2018-12-19T04:35:46.470Z,1.70
2018-12-19T04:38:14.325Z,1.70
2018-12-19T04:40:41.815Z,1.70
2018-12-19T04:43:09.244Z,1.80
2018-12-19T04:45:36.689Z,1.80
2018-12-19T04:48:04.161Z,1.80
2018-12-19T04:50:31.615Z,1.70
2018-12-19T04:52:59.160Z,1.70
2018-12-19T04:55:26.623Z,1.70
2018-12-19T04:57:54.079Z,1.70
2018-12-19T05:00:22.364Z,1.70
2018-12-19T05:02:49.806Z,1.70
2018-12-19T05:05:17.278Z,1.70
2018-12-19T05:07:44.831Z,1.70
2018-12-19T05:10:12.619Z,1.70
2018-12-19T05:12:40.184Z,1.60
2018-12-19T05:15:07.684Z,1.70
2018-12-19T05:17:35.120Z,1.60
2018-12-19T05:20:02.844Z,1.70
2018-12-19T05:22:30.293Z,1.70
2018-12-19T05:24:57.752Z,1.70
2018-12-19T05:27:25.231Z,1.70
2018-12-19T05:29:53.312Z,1.70
2018-12-19T05:32:20.865Z,1.70
2018-12-19T05:34:48.344Z,1.70
2018-12-19T05:37:15.834Z,1.70
2018-12-19T05:39:43.280Z,1.70
2018-12-19T05:42:10.738Z,1.80
2018-12-19T05:44:38.946Z,1.80
2018-12-19T05:47:06.418Z,1.80
2018-12-19T05:49:34.488Z,1.90
2018-12-19T05:52:01.946Z,1.80
2018-12-19T05:54:29.413Z,1.90
2018-12-19T05:56:56.876Z,1.90
2018-12-19T05:59:24.384Z,1.90
2018-12-19T06:01:51.836Z,1.90
2018-12-19T06:04:19.317Z,1.90
2018-12-19T06:06:46.785Z,2.00
2018-12-19T06:09:14.267Z,2.00
2018-12-19T06:11:41.723Z,1.90
2018-12-19T06:14:09.193Z,2.00
2018-12-19T06:16:36.673Z,2.00
2018-12-19T06:19:04.171Z,2.00
2018-12-19T06:21:32.289Z,1.90
2018-12-19T06:23:59.914Z,1.90
2018-12-19T06:26:27.341Z,1.90
2018-12-19T06:28:54.861Z,1.80
2018-12-19T06:31:22.301Z,1.80
2018-12-19T06:33:50.285Z,1.80
2018-12-19T06:36:17.769Z,1.90
2018-12-19T06:38:45.253Z,2.00
2018-12-19T06:41:12.688Z,2.00
2018-12-19T06:43:40.180Z,2.00
2018-12-19T06:46:07.700Z,2.10
2018-12-19T06:48:35.193Z,2.10
2018-12-19T06:51:02.845Z,2.20
2018-12-19T06:53:30.325Z,2.20
2018-12-19T06:55:57.800Z,2.20
2018-12-19T06:58:25.245Z,2.20
2018-12-19T07:00:52.701Z,2.10
2018-12-19T07:03:20.163Z,2.10
2018-12-19T07:05:47.639Z,2.10
2018-12-19T07:08:15.126Z,2.00
2018-12-19T07:10:42.622Z,2.00
2018-12-19T07:13:10.094Z,2.00
2018-12-19T07:15:37.563Z,2.00
2018-12-19T07:18:05.088Z,2.00
2018-12-19T07:20:32.564Z,2.00
2018-12-19T07:23:00.038Z,1.90
2018-12-19T07:25:27.522Z,1.90
2018-12-19T07:27:54.960Z,1.90
2018-12-19T07:30:22.443Z,1.90
2018-12-19T07:32:49.958Z,1.90
2018-12-19T07:35:17.488Z,2.00
2018-12-19T07:37:45.121Z,2.00
2018-12-19T07:40:12.584Z,2.00
2018-12-19T07:42:40.039Z,2.00
2018-12-19T07:45:07.524Z,2.10
2018-12-19T07:47:34.988Z,2.10
2018-12-19T07:50:02.470Z,2.10
2018-12-19T07:52:30.032Z,2.10
2018-12-19T07:54:57.533Z,2.10
2018-12-19T07:57:24.989Z,2.10
2018-12-19T07:59:52.436Z,2.10
2018-12-19T08:02:20.133Z,2.10
2018-12-19T08:04:47.600Z,2.10
2018-12-19T08:07:15.064Z,2.10
2018-12-19T08:09:42.525Z,2.10
2018-12-19T08:12:09.996Z,2.10
2018-12-19T08:14:37.467Z,2.10
2018-12-19T08:17:04.898Z,2.00
2018-12-19T08:19:32.389Z,2.10
2018-12-19T08:21:59.852Z,2.10
2018-12-19T08:24:27.332Z,2.10
2018-12-19T08:26:54.823Z,2.10
2018-12-19T08:29:22.276Z,2.20
2018-12-19T08:31:49.734Z,2.20
2018-12-19T08:34:17.253Z,2.20
2018-12-19T08:36:44.919Z,2.30
2018-12-19T08:39:12.725Z,2.30
2018-12-19T08:41:40.603Z,2.30
2018-12-19T08:44:08.045Z,2.40
2018-12-19T08:46:35.517Z,2.30
2018-12-19T08:49:02.975Z,2.10
2018-12-19T08:51:30.480Z,2.00
2018-12-19T08:53:57.950Z,2.00
2018-12-19T08:56:25.435Z,2.20
2018-12-19T08:58:52.946Z,2.30
2018-12-19T09:01:20.429Z,2.30
2018-12-19T09:03:47.872Z,2.40
2018-12-19T09:06:15.384Z,2.30
2018-12-19T09:08:42.909Z,2.30
2018-12-19T09:11:10.363Z,2.30
2018-12-19T09:13:37.840Z,2.40
2018-12-19T09:16:05.319Z,2.50
2018-12-19T09:18:32.808Z,2.60
2018-12-19T09:21:00.253Z,2.60
2018-12-19T09:23:27.718Z,2.80
2018-12-19T09:25:55.179Z,2.90
2018-12-19T09:28:22.740Z,3.00
2018-12-19T09:30:50.232Z,3.10
2018-12-19T09:33:17.681Z,3.10
2018-12-19T09:35:45.174Z,3.20
2018-12-19T09:38:12.601Z,3.30
2018-12-19T09:40:40.040Z,3.20
2018-12-19T09:43:07.495Z,3.30
2018-12-19T09:45:34.944Z,3.40
2018-12-19T09:48:02.421Z,3.50
2018-12-19T09:50:29.892Z,3.50
2018-12-19T09:52:57.315Z,3.40
2018-12-19T09:55:24.882Z,3.40
2018-12-19T09:57:52.336Z,3.40
2018-12-19T10:00:25.443Z,3.40
2018-12-19T10:02:52.890Z,3.30
2018-12-19T10:05:20.366Z,3.40
2018-12-19T10:07:47.861Z,3.30
2018-12-19T10:10:15.333Z,3.30
2018-12-19T10:12:42.772Z,3.30
2018-12-19T10:15:10.251Z,3.30
2018-12-19T10:17:40.906Z,3.40
2018-12-19T10:20:07.244Z,3.50
2018-12-19T10:22:34.690Z,3.50
2018-12-19T10:25:07.790Z,3.50
2018-12-19T10:27:35.246Z,3.60
2018-12-19T10:30:03.739Z,3.50
2018-12-19T10:32:33.134Z,3.60
2018-12-19T10:35:00.735Z,3.70
2018-12-19T10:37:28.216Z,3.80
2018-12-19T10:39:55.772Z,3.90
2018-12-19T10:42:23.260Z,4.10
2018-12-19T10:44:50.699Z,4.30
2018-12-19T10:47:18.135Z,4.40
2018-12-19T10:49:45.614Z,4.50
2018-12-19T10:52:13.039Z,4.50
2018-12-19T10:54:40.499Z,4.60
2018-12-19T10:57:08.072Z,4.70
2018-12-19T10:59:35.562Z,4.80
2018-12-19T11:02:03.022Z,4.90
2018-12-19T11:04:30.478Z,5.00
2018-12-19T11:06:57.938Z,5.10
2018-12-19T11:09:25.400Z,5.00
2018-12-19T11:11:52.835Z,5.00
2018-12-19T11:14:20.290Z,5.00
2018-12-19T11:16:47.745Z,5.10
2018-12-19T11:19:15.221Z,5.10
2018-12-19T11:21:42.713Z,5.10
2018-12-19T11:24:10.226Z,5.30
2018-12-19T11:26:37.720Z,5.30
2018-12-19T11:29:05.166Z,5.30
2018-12-19T11:31:32.646Z,5.30
2018-12-19T11:34:00.088Z,5.40
2018-12-19T11:36:27.599Z,5.40
2018-12-19T11:38:55.044Z,5.40
2018-12-19T11:41:22.519Z,5.40
2018-12-19T11:43:49.986Z,5.50
2018-12-19T11:46:17.476Z,5.40
2018-12-19T11:48:44.959Z,5.40
2018-12-19T11:51:12.478Z,5.40
2018-12-19T11:53:39.941Z,5.30
2018-12-19T11:56:07.444Z,5.40
2018-12-19T11:58:34.892Z,5.40
2018-12-19T12:01:02.385Z,5.30
2018-12-19T12:03:29.866Z,5.30
2018-12-19T12:05:57.316Z,5.10
2018-12-19T12:08:24.768Z,5.00
2018-12-19T12:10:52.215Z,4.90
2018-12-19T12:13:19.672Z,4.90
2018-12-19T12:15:47.119Z,4.80
2018-12-19T12:18:15.226Z,4.90
2018-12-19T12:20:42.660Z,4.80
2018-12-19T12:23:10.493Z,4.80
2018-12-19T12:25:38.008Z,4.70
2018-12-19T12:28:05.662Z,4.50
2018-12-19T12:30:33.122Z,4.40
2018-12-19T12:33:01.135Z,4.30
2018-12-19T12:35:28.617Z,4.20
2018-12-19T12:37:56.049Z,4.10
2018-12-19T12:40:23.575Z,4.00
2018-12-19T12:42:51.049Z,4.00
2018-12-19T12:45:18.497Z,4.00
2018-12-19T12:47:45.966Z,4.00
2018-12-19T12:50:14.612Z,4.10
2018-12-19T12:52:42.063Z,4.10
2018-12-19T12:55:09.521Z,4.10
2018-12-19T12:57:36.983Z,4.10
2018-12-19T13:00:06.387Z,4.00
2018-12-19T13:02:33.833Z,4.00
2018-12-19T13:05:01.542Z,3.90
2018-12-19T13:07:28.988Z,3.90
2018-12-19T13:09:56.445Z,3.80
2018-12-19T13:12:23.988Z,3.70
2018-12-19T13:14:51.474Z,3.70
2018-12-19T13:17:18.976Z,3.90
2018-12-19T13:19:46.468Z,4.10
2018-12-19T13:22:13.948Z,4.20
2018-12-19T13:24:41.404Z,4.40
2018-12-19T13:27:08.849Z,4.70
2018-12-19T13:29:36.289Z,4.80
2018-12-19T13:32:03.773Z,5.10
2018-12-19T13:34:31.236Z,5.40
2018-12-19T13:36:58.830Z,5.60
2018-12-19T13:39:26.295Z,5.70
2018-12-19T13:41:53.756Z,6.10
2018-12-19T13:44:21.322Z,6.30
2018-12-19T13:46:48.835Z,6.10
2018-12-19T13:49:16.392Z,6.00
2018-12-19T13:51:43.839Z,6.00
2018-12-19T13:54:11.398Z,5.80
2018-12-19T13:56:38.924Z,5.60
2018-12-19T13:59:07.845Z,5.40
2018-12-19T14:01:35.278Z,5.10
2018-12-19T14:04:02.788Z,4.80
2018-12-19T14:06:30.247Z,4.50
2018-12-19T14:08:57.713Z,4.30
2018-12-19T14:11:25.227Z,4.10
2018-12-19T14:13:52.692Z,3.90
2018-12-19T14:16:20.193Z,3.70
2018-12-19T14:18:47.707Z,3.60
2018-12-19T14:21:15.280Z,3.50
2018-12-19T14:23:42.740Z,3.40
2018-12-19T14:26:10.225Z,3.30
2018-12-19T14:28:37.773Z,3.10
2018-12-19T14:31:05.270Z,3.10
2018-12-19T14:33:32.790Z,3.10
2018-12-19T14:36:00.236Z,3.10
2018-12-19T14:38:27.778Z,3.10
2018-12-19T14:40:55.231Z,3.20
2018-12-19T14:43:22.696Z,3.20
2018-12-19T14:45:50.198Z,3.30
2018-12-19T14:48:17.801Z,3.30
2018-12-19T14:50:45.308Z,3.30
2018-12-19T14:53:12.937Z,3.20
2018-12-19T14:55:40.431Z,3.10
2018-12-19T14:58:08.954Z,3.00
2018-12-19T15:00:36.424Z,3.00
2018-12-19T15:03:03.939Z,2.90
2018-12-19T15:05:31.426Z,2.90
2018-12-19T15:07:58.937Z,2.90
2018-12-19T15:10:26.412Z,2.80
2018-12-19T15:12:53.980Z,2.80
2018-12-19T15:15:23.369Z,2.80
2018-12-19T15:17:50.928Z,2.80
2018-12-19T15:20:18.381Z,2.80
2018-12-19T15:22:45.939Z,2.70
2018-12-19T15:25:13.430Z,2.60
2018-12-19T15:27:40.946Z,2.50
2018-12-19T15:30:08.444Z,2.40
2018-12-19T15:32:37.208Z,2.30
2018-12-19T15:35:04.903Z,2.20
2018-12-19T15:37:32.359Z,2.20
2018-12-19T15:39:59.870Z,2.20
2018-12-19T15:42:32.441Z,2.10
2018-12-19T15:44:57.869Z,2.00
2018-12-19T15:47:25.346Z,1.90
2018-12-19T15:49:52.830Z,1.80
2018-12-19T15:52:20.326Z,1.80
2018-12-19T15:54:47.966Z,1.70
2018-12-19T15:57:15.427Z,1.70
2018-12-19T15:59:42.928Z,1.70
2018-12-19T16:02:10.385Z,1.70
2018-12-19T16:04:38.054Z,1.60
2018-12-19T16:07:05.531Z,1.50
2018-12-19T16:09:33.027Z,1.50
2018-12-19T16:12:00.673Z,1.40
2018-12-19T16:14:29.069Z,1.40
2018-12-19T16:16:56.557Z,1.40
2018-12-19T16:19:24.033Z,1.40
2018-12-19T16:21:51.503Z,1.50
2018-12-19T16:24:18.947Z,1.60
2018-12-19T16:26:46.448Z,1.70
2018-12-19T16:29:14.033Z,1.90
2018-12-19T16:31:41.492Z,2.00
2018-12-19T16:34:09.062Z,2.10
2018-12-19T16:36:37.704Z,2.30
2018-12-19T16:39:07.495Z,2.30
2018-12-19T16:41:35.171Z,2.40
2018-12-19T16:44:02.729Z,2.40
2018-12-19T16:46:30.181Z,2.30
2018-12-19T16:48:57.684Z,2.30
2018-12-19T16:51:25.369Z,2.30
2018-12-19T16:53:52.890Z,2.20
2018-12-19T16:56:20.394Z,2.10
2018-12-19T16:58:47.829Z,2.10
2018-12-19T17:01:15.341Z,2.00
2018-12-19T17:03:42.916Z,2.00
2018-12-19T17:06:10.401Z,2.00
2018-12-19T17:08:37.875Z,2.00
2018-12-19T17:11:05.944Z,1.90
2018-12-19T17:13:33.448Z,1.90
2018-12-19T17:16:00.959Z,1.80
2018-12-19T17:18:28.439Z,1.80
2018-12-19T17:20:56.014Z,1.80
2018-12-19T17:23:23.991Z,1.80
2018-12-19T17:25:51.443Z,1.70
2018-12-19T17:28:19.046Z,1.70
2018-12-19T17:30:46.496Z,1.70
2018-12-19T17:33:13.961Z,1.70
2018-12-19T17:35:41.415Z,1.80
2018-12-19T17:38:08.930Z,1.70
2018-12-19T17:40:36.448Z,1.70
2018-12-19T17:43:03.997Z,1.60
2018-12-19T17:45:31.578Z,1.60
2018-12-19T17:47:59.083Z,1.60
2018-12-19T17:50:26.595Z,1.60
2018-12-19T17:52:54.129Z,1.50
2018-12-19T17:55:21.785Z,1.60
2018-12-19T17:57:49.234Z,1.70
2018-12-19T18:00:16.708Z,1.70
2018-12-19T18:02:44.180Z,1.60
2018-12-19T18:05:11.744Z,1.90
2018-12-19T18:07:39.300Z,2.30
2018-12-19T18:10:06.851Z,2.40
2018-12-19T18:12:34.304Z,2.70
2018-12-19T18:15:01.753Z,2.70
2018-12-19T18:17:29.245Z,2.80
2018-12-19T18:19:56.715Z,2.80
2018-12-19T18:22:24.223Z,2.90
2018-12-19T18:24:51.817Z,2.90
2018-12-19T18:27:19.261Z,3.00
2018-12-19T18:29:46.951Z,3.00
2018-12-19T18:32:14.408Z,3.10
2018-12-19T18:34:41.889Z,3.10
2018-12-19T18:37:09.762Z,3.20
2018-12-19T18:39:37.696Z,3.30
2018-12-19T18:42:05.211Z,3.40
2018-12-19T18:44:32.809Z,3.50
2018-12-19T18:47:02.034Z,3.50
2018-12-19T18:49:29.528Z,3.60
2018-12-19T18:51:57.101Z,3.70
2018-12-19T18:54:24.936Z,3.80
2018-12-19T18:56:52.425Z,3.80
2018-12-19T18:59:19.881Z,3.90
2018-12-19T19:01:47.406Z,3.90
2018-12-19T19:04:14.970Z,3.90
2018-12-19T19:06:42.576Z,3.90
2018-12-19T19:09:10.262Z,3.90
2018-12-19T19:11:37.776Z,3.80
2018-12-19T19:14:05.282Z,3.70
2018-12-19T19:19:23.909Z,3.60
2018-12-19T19:21:51.415Z,3.70
2018-12-19T19:24:19.022Z,3.70
2018-12-19T19:26:46.491Z,3.60
2018-12-19T19:29:13.941Z,3.60
2018-12-19T19:31:41.385Z,3.60
2018-12-19T19:34:08.853Z,3.50
2018-12-19T19:36:36.353Z,3.50
2018-12-19T19:39:06.470Z,3.60
2018-12-19T19:41:34.151Z,3.60
2018-12-19T19:44:01.679Z,3.60
2018-12-19T19:46:29.128Z,3.60
2018-12-19T19:48:56.591Z,3.60
2018-12-19T19:51:24.132Z,3.60
2018-12-19T19:53:51.619Z,3.60
2018-12-19T19:56:19.082Z,3.50
2018-12-19T19:58:46.562Z,3.40
2018-12-19T20:01:14.107Z,3.40
2018-12-19T20:03:41.605Z,3.40
2018-12-19T20:06:09.047Z,3.30
2018-12-19T20:08:37.295Z,3.30
2018-12-19T20:11:04.778Z,3.20
2018-12-19T20:13:33.453Z,3.20
2018-12-19T20:16:01.339Z,3.10
2018-12-19T20:18:28.839Z,3.00
2018-12-19T20:20:56.422Z,2.90
2018-12-19T20:23:23.890Z,2.90
2018-12-19T20:25:51.425Z,2.90
2018-12-19T20:28:18.866Z,2.90
2018-12-19T20:30:47.865Z,3.00
2018-12-19T20:33:15.353Z,3.00
2018-12-19T20:35:42.811Z,3.00
2018-12-19T20:38:10.278Z,3.00
2018-12-19T20:40:37.765Z,3.00
2018-12-19T20:43:06.737Z,3.00
2018-12-19T20:45:34.503Z,3.10
2018-12-19T20:48:01.990Z,3.20
2018-12-19T20:50:29.529Z,3.30
2018-12-19T20:52:56.974Z,3.30
2018-12-19T20:55:24.461Z,3.40
2018-12-19T20:57:51.928Z,3.40
2018-12-19T21:00:19.742Z,3.50
2018-12-19T21:02:47.245Z,3.50
2018-12-19T21:05:14.765Z,3.70
2018-12-19T21:07:42.202Z,3.70
2018-12-19T21:10:09.705Z,3.70
2018-12-19T21:12:37.510Z,3.70
2018-12-19T21:15:06.292Z,3.80
2018-12-19T21:17:39.581Z,3.80
2018-12-19T21:20:07.170Z,3.90
2018-12-19T21:22:35.022Z,3.90
2018-12-19T21:25:02.498Z,3.80
2018-12-19T21:27:29.966Z,3.90
2018-12-19T21:29:57.417Z,3.90
2018-12-19T21:32:24.910Z,3.90
2018-12-19T21:34:52.356Z,4.00
2018-12-19T21:37:19.832Z,3.90
2018-12-19T21:39:47.278Z,3.90
2018-12-19T21:42:18.238Z,3.90
2018-12-19T21:44:45.711Z,3.80
2018-12-19T21:47:13.257Z,3.80
2018-12-19T21:49:40.851Z,3.80
2018-12-19T21:52:08.432Z,3.80
2018-12-19T21:54:35.904Z,3.80
2018-12-19T21:57:03.486Z,3.80
2018-12-19T21:59:31.006Z,3.80
2018-12-19T22:02:00.352Z,3.80
2018-12-19T22:04:27.817Z,3.80
2018-12-19T22:06:55.353Z,3.80
2018-12-19T22:09:22.888Z,3.80
2018-12-19T22:11:50.863Z,3.80
2018-12-19T22:14:18.366Z,3.90
2018-12-19T22:16:51.582Z,3.90
2018-12-19T22:19:19.733Z,3.90
2018-12-19T22:21:47.231Z,3.90
2018-12-19T22:24:14.756Z,3.90
2018-12-19T22:26:42.361Z,4.00
2018-12-19T22:29:09.876Z,4.00
2018-12-19T22:31:38.430Z,3.90
2018-12-19T22:34:05.956Z,4.00
2018-12-19T22:36:33.520Z,4.00
2018-12-19T22:39:01.046Z,4.00
2018-12-19T22:41:30.170Z,4.00
2018-12-19T22:43:57.698Z,4.00
2018-12-19T22:46:25.251Z,4.00
2018-12-19T22:48:52.767Z,4.00
2018-12-19T22:51:20.220Z,4.00
2018-12-19T22:53:47.692Z,3.90
2018-12-19T22:56:15.263Z,3.90
2018-12-19T22:58:42.725Z,3.90
2018-12-19T23:01:18.563Z,3.90
2018-12-19T23:03:51.662Z,3.90
2018-12-19T23:06:19.236Z,3.80
2018-12-19T23:08:46.711Z,3.80
2018-12-19T23:11:14.741Z,3.80
2018-12-19T23:13:42.270Z,3.70
2018-12-19T23:16:09.811Z,3.70
2018-12-19T23:18:37.922Z,3.70
2018-12-19T23:21:05.857Z,3.60
2018-12-19T23:23:33.440Z,3.60
2018-12-19T23:26:00.968Z,3.70
2018-12-19T23:28:28.615Z,3.70
2018-12-19T23:30:56.058Z,3.80
2018-12-19T23:33:23.513Z,3.90
2018-12-19T23:35:50.970Z,4.00
2018-12-19T23:38:18.522Z,4.00
2018-12-19T23:40:46.078Z,4.10
2018-12-19T23:43:13.731Z,4.10
2018-12-19T23:45:41.282Z,4.10
2018-12-19T23:48:08.752Z,4.10
2018-12-19T23:50:36.294Z,4.10
2018-12-19T23:53:03.817Z,4.10
2018-12-19T23:55:31.302Z,4.10
2018-12-19T23:57:58.821Z,4.10
